Dallas, PA (18612)

8:30 PM EDT on July 28, 2016 (GMT -0400)
Captains Quarters Shavertown | | Change Station
Active Advisory: Flash Flood Watch

Elev 1145 ft 41.33 °N, 75.94 °W | Updated 14 minutes ago

Mostly Cloudy
Mostly Cloudy
75.7 °F
Feels Like 77 °F
N
0.0
Wind Variable Wind from ESE

Today
High -- | Low -- °F
--% Chance of Precip.
Yesterday
High -- | Low -- °F
Precip. -- in
Pressure 29.88 in
Visibility 9.0 miles
Clouds Few 4500 ft
Mostly Cloudy 6500 ft
Mostly Cloudy 8500 ft
Heat Index 77 °F
Dew Point 68 °F
Humidity 76%
Rainfall 0.00 in
Snow Depth Not available.
5:55 AM 8:24 PM
Waning Crescent, 27% visible
METAR KAVP 282354Z VRB03KT 9SM FEW045 BKN065 BKN085 26/19 A2990 RMK AO2 SLP117 T02560194 10333 20256 51015
Pressure 29.88 in
Visibility 9.0 miles
Clouds Few 4500 ft
Mostly Cloudy 6500 ft
Mostly Cloudy 8500 ft
Heat Index 77 °F
Dew Point 68 °F
Humidity 76%
Rainfall 0.00 in
Snow Depth Not available.
5:55 AM 8:24 PM
Waning Crescent, 27% visible
METAR KAVP 282354Z VRB03KT 9SM FEW045 BKN065 BKN085 26/19 A2990 RMK AO2 SLP117 T02560194 10333 20256 51015

10-Day Weather Forecast

Almanac

Astronomy

Jul. 28, 2016 Rise Set
Actual Time
Civil Twilight
Nautical Twilight
Astronomical Twilight
Moon
Length of Visible Light
Length of Day
Tomorrow will be .
, % of the Moon is Illuminated

Today's Extremes

State Highs State Lows

Community

WunderPhotos

Upload Photos

1,928,240 photos uploaded!

WunderBlog® & News

Nearby

Air Quality

  Air Quality AQ Index Pollutant
Not available.

Snow Depth

Station Depth Elevation

Earthquake Activity

City Distance Mag. Time & Date
Minimum magnitude displayed is 2.5.

Coastal Water Temperatures

Place Temperature

Stations

Nearby Weather Stations

Station Location Temp. Windchill Dew Point Humidity Wind Precip. Elev Updated Type
                   

Watches & Warnings

Flash Flood Watch
Issued: 2:19 PM EDT Jul. 28, 2016 – National Weather Service

... Flash Flood Watch in effect from 8 PM EDT this evening through
Friday morning...

The National Weather Service in Binghamton has issued a

* Flash Flood Watch for a portion of northeast Pennsylvania...
including the following Lackawanna... Luzerne... Pike and ...
southern Wayne.

* From 8 PM EDT this evening through Friday morning.

* Showers and isolated thunderstorms with localized heavy
rainfall.

* The flood threat will be primarily in poor drainage areas such
as urban locations. Widespread stream flooding is not expected
and no flooding is expected along the major rivers.

Precautionary/preparedness actions...

A Flash Flood Watch means that conditions may develop that lead
to flash flooding. Flash flooding is a very dangerous situation.

You should monitor later forecasts and be prepared to take action
should flash flood warnings be issued.



Mse